createdAt,value
2019-06-20T00:00:32.691Z,5.40
2019-06-20T00:03:07.125Z,4.83
2019-06-20T00:05:37.121Z,5.23
2019-06-20T00:08:09.440Z,5.80
2019-06-20T00:10:39.712Z,5.37
2019-06-20T00:13:11.916Z,5.40
2019-06-20T00:15:42.778Z,5.80
2019-06-20T00:18:12.848Z,5.10
2019-06-20T00:20:43.148Z,5.27
2019-06-20T00:23:13.666Z,5.30
2019-06-20T00:25:43.309Z,5.50
2019-06-20T00:28:13.346Z,5.37
2019-06-20T00:30:43.229Z,5.67
2019-06-20T00:33:13.148Z,5.57
2019-06-20T00:35:43.160Z,5.20
2019-06-20T00:38:12.892Z,5.30
2019-06-20T00:40:43.746Z,5.13
2019-06-20T00:43:17.955Z,4.97
2019-06-20T00:45:47.113Z,5.10
2019-06-20T00:48:16.972Z,5.77
2019-06-20T00:50:47.078Z,5.00
2019-06-20T00:53:16.987Z,5.00
2019-06-20T00:55:47.244Z,4.77
2019-06-20T00:58:17.766Z,4.63
2019-06-20T01:00:48.475Z,4.53
2019-06-20T01:03:18.915Z,4.90
2019-06-20T01:05:49.075Z,4.67
2019-06-20T01:08:19.509Z,4.80
2019-06-20T01:10:49.556Z,4.60
2019-06-20T01:13:32.672Z,4.70
2019-06-20T01:15:53.993Z,4.63
2019-06-20T01:18:24.081Z,4.73
2019-06-20T01:20:56.416Z,4.60
2019-06-20T01:23:26.415Z,4.70
2019-06-20T01:25:56.591Z,4.90
2019-06-20T01:28:29.238Z,4.70
2019-06-20T01:30:58.909Z,4.30
2019-06-20T01:33:29.046Z,4.63
2019-06-20T01:35:58.742Z,4.70
2019-06-20T01:38:31.137Z,4.43
2019-06-20T01:41:06.681Z,4.37
2019-06-20T01:43:49.984Z,4.57
2019-06-20T01:46:16.145Z,4.40
2019-06-20T01:48:56.064Z,4.30
2019-06-20T01:51:27.274Z,4.80
2019-06-20T01:53:57.510Z,4.40
2019-06-20T01:56:27.392Z,5.10
2019-06-20T01:58:59.284Z,4.77
2019-06-20T02:01:29.223Z,4.80
2019-06-20T02:04:08.377Z,4.90
2019-06-20T02:06:41.387Z,5.10
2019-06-20T02:09:12.812Z,5.03
2019-06-20T02:11:42.736Z,5.27
2019-06-20T02:14:14.813Z,5.30
2019-06-20T02:16:46.562Z,5.20
2019-06-20T02:19:21.977Z,4.87
2019-06-20T02:21:56.546Z,4.97
2019-06-20T02:24:26.515Z,5.30
2019-06-20T02:26:59.836Z,5.10
2019-06-20T02:29:29.707Z,4.93
2019-06-20T02:32:03.561Z,5.50
2019-06-20T02:34:35.396Z,5.00
2019-06-20T02:37:07.788Z,5.10
2019-06-20T02:39:37.322Z,5.00
2019-06-20T02:42:08.319Z,5.37
2019-06-20T02:44:37.910Z,5.23
2019-06-20T02:47:09.251Z,4.93
2019-06-20T02:49:39.210Z,5.27
2019-06-20T02:52:14.692Z,5.20
2019-06-20T02:54:52.332Z,5.03
2019-06-20T02:57:23.223Z,5.67
2019-06-20T02:59:53.251Z,5.50
2019-06-20T03:02:28.046Z,5.20
2019-06-20T03:05:02.336Z,5.47
2019-06-20T03:07:45.114Z,5.27
2019-06-20T03:10:16.394Z,5.73
2019-06-20T03:12:46.028Z,6.00
2019-06-20T03:15:15.612Z,5.13
2019-06-20T03:17:45.213Z,5.17
2019-06-20T03:20:16.466Z,5.30
2019-06-20T03:22:47.949Z,4.53
2019-06-20T03:25:19.713Z,4.53
2019-06-20T03:27:49.641Z,4.53
2019-06-20T03:30:20.566Z,4.40
2019-06-20T03:32:51.251Z,4.53
2019-06-20T03:35:21.957Z,4.60
2019-06-20T03:37:53.018Z,4.50
2019-06-20T03:40:22.826Z,4.10
2019-06-20T03:42:52.751Z,4.20
2019-06-20T03:45:22.731Z,3.97
2019-06-20T03:48:13.287Z,4.10
2019-06-20T03:50:47.707Z,4.27
2019-06-20T03:53:18.366Z,4.00
2019-06-20T03:55:48.212Z,4.00
2019-06-20T03:58:19.607Z,3.70
2019-06-20T04:00:49.845Z,3.90
2019-06-20T04:03:20.114Z,3.60
2019-06-20T04:05:51.465Z,4.17
2019-06-20T04:08:21.293Z,3.80
2019-06-20T04:10:51.506Z,4.07
2019-06-20T04:13:29.550Z,3.67
2019-06-20T04:16:03.716Z,3.70
2019-06-20T04:18:34.583Z,3.60
2019-06-20T04:21:05.979Z,4.00
2019-06-20T04:23:43.182Z,3.10
2019-06-20T04:26:17.891Z,3.20
2019-06-20T04:28:47.746Z,3.40
2019-06-20T04:31:18.370Z,3.27
2019-06-20T04:33:48.826Z,3.43
2019-06-20T04:36:21.354Z,3.17
2019-06-20T04:38:53.219Z,2.67
2019-06-20T04:41:26.918Z,3.00
2019-06-20T04:43:56.771Z,2.63
2019-06-20T04:46:35.588Z,2.90
2019-06-20T04:49:07.291Z,3.00
2019-06-20T04:51:40.545Z,2.50
2019-06-20T04:54:11.891Z,2.63
2019-06-20T04:56:43.799Z,3.27
2019-06-20T04:59:15.255Z,2.93
2019-06-20T05:01:48.699Z,3.00
2019-06-20T05:04:19.624Z,2.97
2019-06-20T05:07:00.261Z,2.80
2019-06-20T05:09:33.955Z,2.70
2019-06-20T05:12:07.068Z,2.87
2019-06-20T05:14:37.511Z,2.93
2019-06-20T05:17:09.734Z,2.70
2019-06-20T05:19:40.950Z,3.10
2019-06-20T05:22:11.946Z,3.27
2019-06-20T05:24:42.857Z,3.13
2019-06-20T05:27:15.579Z,2.73
2019-06-20T05:29:45.786Z,2.40
2019-06-20T05:32:16.362Z,2.70
2019-06-20T05:34:47.496Z,2.73
2019-06-20T05:37:17.517Z,2.63
2019-06-20T05:39:50.189Z,2.63
2019-06-20T05:42:21.595Z,3.10
2019-06-20T05:44:52.639Z,2.83
2019-06-20T05:47:23.507Z,2.73
2019-06-20T05:49:57.161Z,3.30
2019-06-20T05:52:27.696Z,3.20
2019-06-20T05:54:58.830Z,3.30
2019-06-20T05:57:28.544Z,3.47
2019-06-20T05:59:58.166Z,4.00
2019-06-20T06:02:33.438Z,3.80
2019-06-20T06:05:22.102Z,3.60
2019-06-20T06:07:55.242Z,3.67
2019-06-20T06:10:25.189Z,4.13
2019-06-20T06:12:58.253Z,3.47
2019-06-20T06:15:30.606Z,3.33
2019-06-20T06:18:00.210Z,3.30
2019-06-20T06:20:29.767Z,3.50
2019-06-20T06:22:59.777Z,3.10
2019-06-20T06:25:31.564Z,3.17
2019-06-20T06:28:01.992Z,3.37
2019-06-20T06:30:34.376Z,4.53
2019-06-20T06:33:07.822Z,4.37
2019-06-20T06:35:37.894Z,3.70
2019-06-20T06:38:07.853Z,4.57
2019-06-20T06:40:38.568Z,4.10
2019-06-20T06:43:08.816Z,3.83
2019-06-20T06:45:39.453Z,3.83
2019-06-20T06:48:09.400Z,3.80
2019-06-20T06:50:41.233Z,3.47
2019-06-20T06:53:11.012Z,3.97
2019-06-20T06:55:42.556Z,4.07
2019-06-20T06:58:12.414Z,4.10
2019-06-20T07:00:44.341Z,4.03
2019-06-20T07:03:16.043Z,7.30
2019-06-20T07:05:46.515Z,4.73
2019-06-20T07:08:17.254Z,5.03
2019-06-20T07:10:48.485Z,4.83
2019-06-20T07:13:18.228Z,4.87
2019-06-20T07:15:47.959Z,5.10
2019-06-20T07:18:18.104Z,5.10
2019-06-20T07:20:50.725Z,5.37
2019-06-20T07:23:28.361Z,5.10
2019-06-20T07:25:59.089Z,4.70
2019-06-20T07:28:29.072Z,5.83
2019-06-20T07:31:01.527Z,5.93
2019-06-20T07:33:31.821Z,6.33
2019-06-20T07:36:02.806Z,5.53
2019-06-20T07:38:35.101Z,5.37
2019-06-20T07:41:08.243Z,6.20
2019-06-20T07:43:39.789Z,6.10
2019-06-20T07:46:10.660Z,6.80
2019-06-20T07:48:43.580Z,6.67
2019-06-20T07:51:14.067Z,7.90
2019-06-20T07:53:43.680Z,7.23
2019-06-20T07:56:16.004Z,7.13
2019-06-20T07:58:45.577Z,7.20
2019-06-20T08:01:15.588Z,8.07
2019-06-20T08:03:47.837Z,7.73
2019-06-20T08:06:17.870Z,8.77
2019-06-20T08:08:47.803Z,8.87
2019-06-20T08:11:18.870Z,9.07
2019-06-20T08:13:48.394Z,9.83
2019-06-20T08:16:17.961Z,9.77
2019-06-20T08:18:49.443Z,9.77
2019-06-20T08:21:23.119Z,10.47
2019-06-20T08:23:53.399Z,10.50
2019-06-20T08:26:24.027Z,11.60
2019-06-20T08:29:10.418Z,12.53
2019-06-20T08:31:28.845Z,12.07
2019-06-20T08:33:59.227Z,11.93
2019-06-20T08:36:35.023Z,12.07
2019-06-20T08:39:09.290Z,12.57
2019-06-20T08:41:39.459Z,14.20
2019-06-20T08:44:10.942Z,13.97
2019-06-20T08:46:40.885Z,13.20
2019-06-20T08:49:15.905Z,14.67
2019-06-20T08:51:49.252Z,13.47
2019-06-20T08:54:19.177Z,14.47
2019-06-20T08:56:48.771Z,15.07
2019-06-20T08:59:24.508Z,15.93
2019-06-20T09:01:50.885Z,15.43
2019-06-20T09:04:22.483Z,15.47
2019-06-20T09:06:53.982Z,14.77
2019-06-20T09:09:23.864Z,15.57
2019-06-20T09:11:56.556Z,16.27
2019-06-20T09:14:27.278Z,15.57
2019-06-20T09:16:57.028Z,14.20
2019-06-20T09:19:26.770Z,15.40
2019-06-20T09:21:57.988Z,14.60
2019-06-20T09:24:28.832Z,14.50
2019-06-20T09:27:04.890Z,15.23
2019-06-20T09:29:41.726Z,13.80
2019-06-20T09:32:10.757Z,12.50
2019-06-20T09:34:40.683Z,11.20
2019-06-20T09:37:10.838Z,12.30
2019-06-20T09:39:40.952Z,11.90
2019-06-20T09:42:11.014Z,14.13
2019-06-20T09:44:43.020Z,12.90
2019-06-20T09:47:12.661Z,12.50
2019-06-20T09:49:43.312Z,12.33
2019-06-20T09:52:17.201Z,12.00
2019-06-20T09:54:50.137Z,11.33
2019-06-20T09:57:20.028Z,10.93
2019-06-20T10:00:10.884Z,12.17
2019-06-20T10:02:42.910Z,12.53
2019-06-20T10:05:14.860Z,13.87
2019-06-20T10:07:48.671Z,12.67
2019-06-20T10:10:30.709Z,13.43
2019-06-20T10:13:02.625Z,14.47
2019-06-20T10:15:33.505Z,13.87
2019-06-20T10:18:04.878Z,14.80
2019-06-20T10:20:39.069Z,15.43
2019-06-20T10:23:10.365Z,15.60
2019-06-20T10:25:47.798Z,15.03
2019-06-20T10:28:20.169Z,16.50
2019-06-20T10:30:51.092Z,17.53
2019-06-20T10:33:25.125Z,18.27
2019-06-20T10:35:54.840Z,17.80
2019-06-20T10:38:27.614Z,16.67
2019-06-20T10:41:00.117Z,16.10
2019-06-20T10:43:35.208Z,16.03
2019-06-20T10:46:06.339Z,14.40
2019-06-20T10:48:47.974Z,14.40
2019-06-20T10:51:35.874Z,14.63
2019-06-20T10:54:09.010Z,15.20
2019-06-20T10:56:40.466Z,16.70
2019-06-20T10:59:17.383Z,16.87
2019-06-20T11:01:48.405Z,14.67
2019-06-20T11:04:19.904Z,13.93
2019-06-20T11:06:51.363Z,12.93
2019-06-20T11:09:22.157Z,16.80
2019-06-20T11:11:57.442Z,13.10
2019-06-20T11:14:27.785Z,13.33
2019-06-20T11:17:02.901Z,12.57
2019-06-20T11:19:33.240Z,13.03
2019-06-20T11:22:06.978Z,12.67
2019-06-20T11:24:40.820Z,12.23
2019-06-20T11:27:13.173Z,12.23
2019-06-20T11:29:46.533Z,11.10
2019-06-20T11:32:17.892Z,12.57
2019-06-20T11:34:49.488Z,11.37
2019-06-20T11:37:25.848Z,11.90
2019-06-20T11:40:00.645Z,12.10
2019-06-20T11:42:36.083Z,12.07
2019-06-20T11:45:08.086Z,11.77
2019-06-20T11:47:40.420Z,12.07
2019-06-20T11:50:18.011Z,12.63
2019-06-20T11:52:48.903Z,11.97
2019-06-20T11:55:20.197Z,11.40
2019-06-20T11:57:49.931Z,12.47
2019-06-20T12:00:25.574Z,13.57
2019-06-20T12:02:55.194Z,12.20
2019-06-20T12:05:25.046Z,35.03
2019-06-20T12:07:55.209Z,12.00
2019-06-20T12:10:26.601Z,12.20
2019-06-20T12:12:57.570Z,12.37
2019-06-20T12:15:30.424Z,13.07
2019-06-20T12:18:01.456Z,13.63
2019-06-20T12:20:36.105Z,14.63
2019-06-20T12:23:05.985Z,14.57
2019-06-20T12:25:52.393Z,15.17
2019-06-20T12:28:23.701Z,15.17
2019-06-20T12:30:55.771Z,14.60
2019-06-20T12:33:28.299Z,15.20
2019-06-20T12:35:58.480Z,16.07
2019-06-20T12:38:31.338Z,18.10
2019-06-20T12:41:06.250Z,17.83
2019-06-20T12:43:40.332Z,18.10
2019-06-20T12:46:11.014Z,18.27
2019-06-20T12:48:45.037Z,21.07
2019-06-20T12:51:15.256Z,20.13
2019-06-20T12:53:47.644Z,22.23
2019-06-20T12:56:18.938Z,23.07
2019-06-20T12:58:48.603Z,22.37
2019-06-20T13:01:31.687Z,23.00
2019-06-20T13:03:51.402Z,23.27
2019-06-20T13:06:21.301Z,23.77
2019-06-20T13:08:53.098Z,23.43
2019-06-20T13:11:24.420Z,24.87
2019-06-20T13:13:58.928Z,23.57
2019-06-20T13:16:30.646Z,24.73
2019-06-20T13:19:05.723Z,23.80
2019-06-20T13:21:40.510Z,24.50
2019-06-20T13:24:11.087Z,24.33
2019-06-20T13:26:42.392Z,23.37
2019-06-20T13:29:19.359Z,23.57
2019-06-20T13:32:02.016Z,22.23
2019-06-20T13:34:23.645Z,23.43
2019-06-20T13:36:56.914Z,24.47
2019-06-20T13:39:33.721Z,24.27
2019-06-20T13:42:08.336Z,24.97
2019-06-20T13:44:37.925Z,25.60
2019-06-20T13:47:09.701Z,24.07
2019-06-20T13:49:45.742Z,23.60
2019-06-20T13:52:16.923Z,24.03
2019-06-20T13:54:47.877Z,21.97
2019-06-20T13:57:19.421Z,23.03
2019-06-20T13:59:52.691Z,21.80
2019-06-20T14:02:22.452Z,22.47
2019-06-20T14:04:52.759Z,24.27
2019-06-20T14:07:24.488Z,21.23
2019-06-20T14:09:55.594Z,22.03
2019-06-20T14:12:25.788Z,20.50
2019-06-20T14:15:03.299Z,18.73
2019-06-20T14:17:34.150Z,19.97
2019-06-20T14:20:09.207Z,18.50
2019-06-20T14:22:43.036Z,20.20
2019-06-20T14:25:23.436Z,20.57
2019-06-20T14:27:53.922Z,19.33
2019-06-20T14:30:24.826Z,19.47
2019-06-20T14:32:55.998Z,18.80
2019-06-20T14:35:32.848Z,18.60
2019-06-20T14:38:10.682Z,17.50
2019-06-20T14:41:08.101Z,17.13
2019-06-20T14:43:16.705Z,16.87
2019-06-20T14:45:54.472Z,16.40
2019-06-20T14:48:26.777Z,16.63
2019-06-20T14:50:58.807Z,15.97
2019-06-20T14:53:29.406Z,15.77
2019-06-20T14:55:59.377Z,15.27
2019-06-20T14:58:29.999Z,14.47
2019-06-20T15:01:06.281Z,13.53
2019-06-20T15:03:36.355Z,13.43
2019-06-20T15:06:10.407Z,14.27
2019-06-20T15:08:40.996Z,13.40
2019-06-20T15:11:13.930Z,12.60
2019-06-20T15:13:44.456Z,11.87
2019-06-20T15:16:18.005Z,12.10
2019-06-20T15:18:50.149Z,11.57
2019-06-20T15:21:20.910Z,10.77
2019-06-20T15:23:54.479Z,11.33
2019-06-20T15:26:25.462Z,10.77
2019-06-20T15:28:58.190Z,11.43
2019-06-20T15:31:33.424Z,11.53
2019-06-20T15:34:15.259Z,11.30
2019-06-20T15:36:51.397Z,12.30
2019-06-20T15:39:30.590Z,12.47
2019-06-20T15:42:03.507Z,13.27
2019-06-20T15:44:42.579Z,14.00
2019-06-20T15:47:19.901Z,17.10
2019-06-20T15:49:50.583Z,17.70
2019-06-20T15:52:22.595Z,17.53
2019-06-20T15:54:52.515Z,17.00
2019-06-20T15:57:23.481Z,18.77
2019-06-20T15:59:53.228Z,12.70
2019-06-20T16:02:29.519Z,5.70
2019-06-20T16:05:07.518Z,12.03
2019-06-20T16:07:39.615Z,3.90
2019-06-20T16:10:09.586Z,4.03
2019-06-20T16:12:42.452Z,3.93
2019-06-20T16:15:18.836Z,4.60
2019-06-20T16:17:51.038Z,5.03
2019-06-20T16:20:21.170Z,5.07
2019-06-20T16:22:52.232Z,5.83
2019-06-20T16:25:25.032Z,5.60
2019-06-20T16:28:02.222Z,5.87
2019-06-20T16:30:33.875Z,6.87
2019-06-20T16:33:24.166Z,6.90
2019-06-20T16:35:42.736Z,7.10
2019-06-20T16:38:13.280Z,7.50
2019-06-20T16:40:46.503Z,7.63
2019-06-20T16:43:17.085Z,7.80
2019-06-20T16:45:47.922Z,8.33
2019-06-20T16:48:20.174Z,8.87
2019-06-20T16:50:53.097Z,9.07
2019-06-20T16:53:28.475Z,8.80
2019-06-20T16:55:58.319Z,8.73
2019-06-20T16:58:28.695Z,8.80
2019-06-20T17:00:59.734Z,9.60
2019-06-20T17:03:41.208Z,9.37
2019-06-20T17:06:03.049Z,9.13
2019-06-20T17:08:34.164Z,9.33
2019-06-20T17:11:06.283Z,8.60
2019-06-20T17:13:36.346Z,9.07
2019-06-20T17:16:08.534Z,8.60
2019-06-20T17:18:38.498Z,8.13
2019-06-20T17:21:08.817Z,8.20
2019-06-20T17:23:39.611Z,8.33
2019-06-20T17:26:13.670Z,8.07
2019-06-20T17:28:44.087Z,8.07
2019-06-20T17:31:15.233Z,6.57
2019-06-20T17:33:57.480Z,6.47
2019-06-20T17:36:21.985Z,6.53
2019-06-20T17:38:56.659Z,5.20
2019-06-20T17:41:28.610Z,5.37
2019-06-20T17:44:00.075Z,5.30
2019-06-20T17:46:33.368Z,4.70
2019-06-20T17:49:06.810Z,4.37
2019-06-20T17:51:41.094Z,4.80
2019-06-20T17:54:11.278Z,4.50
2019-06-20T17:56:44.858Z,4.37
2019-06-20T17:59:17.889Z,4.13
2019-06-20T18:01:50.339Z,3.50
2019-06-20T18:04:26.957Z,4.20
2019-06-20T18:06:58.738Z,4.00
2019-06-20T18:09:30.255Z,3.90
2019-06-20T18:12:01.380Z,4.10
2019-06-20T18:14:37.565Z,5.00
2019-06-20T18:17:07.277Z,4.50
2019-06-20T18:19:41.374Z,4.57
2019-06-20T18:22:14.351Z,4.20
2019-06-20T18:24:52.877Z,4.83
2019-06-20T18:27:25.779Z,3.77
2019-06-20T18:29:56.453Z,3.90
2019-06-20T18:32:30.038Z,3.93
2019-06-20T18:35:02.199Z,4.10
2019-06-20T18:37:33.468Z,3.73
2019-06-20T18:40:06.588Z,3.73
2019-06-20T18:42:36.275Z,3.47
2019-06-20T18:45:06.904Z,3.60
2019-06-20T18:47:38.673Z,3.23
2019-06-20T18:50:09.634Z,3.30
2019-06-20T18:52:51.547Z,3.20
2019-06-20T18:55:13.646Z,3.23
2019-06-20T18:57:43.335Z,3.50
2019-06-20T19:00:14.925Z,3.87
2019-06-20T19:02:45.420Z,3.83
2019-06-20T19:05:16.258Z,3.30
2019-06-20T19:07:47.059Z,2.80
2019-06-20T19:10:23.754Z,2.53
2019-06-20T19:12:53.387Z,2.83
2019-06-20T19:15:23.380Z,2.57
2019-06-20T19:17:53.849Z,2.53
2019-06-20T19:20:24.839Z,2.73
2019-06-20T19:22:56.756Z,2.40
2019-06-20T19:25:29.383Z,2.10
2019-06-20T19:28:08.808Z,1.83
2019-06-20T19:30:47.117Z,2.47
2019-06-20T19:33:17.361Z,2.10
2019-06-20T19:35:49.727Z,2.30
2019-06-20T19:38:22.104Z,2.20
2019-06-20T19:40:54.517Z,2.10
2019-06-20T19:43:25.921Z,2.23
2019-06-20T19:45:58.899Z,2.10
2019-06-20T19:48:30.539Z,2.07
2019-06-20T19:51:00.777Z,2.60
2019-06-20T19:56:22.701Z,1.70
2019-06-20T19:58:59.304Z,1.87
2019-06-20T20:01:30.959Z,1.67
2019-06-20T20:04:02.906Z,1.30
2019-06-20T20:06:36.430Z,1.60
2019-06-20T20:09:09.592Z,1.60
2019-06-20T20:11:42.142Z,1.50
2019-06-20T20:14:13.975Z,1.50
2019-06-20T20:16:46.923Z,1.20
2019-06-20T20:19:17.082Z,1.20
2019-06-20T20:21:51.989Z,1.27
2019-06-20T20:24:22.074Z,1.60
2019-06-20T20:26:53.900Z,1.10
2019-06-20T20:29:28.311Z,1.30
2019-06-20T20:32:13.747Z,1.20
2019-06-20T20:34:45.893Z,1.20
2019-06-20T20:37:19.974Z,1.07
2019-06-20T20:39:49.942Z,1.20
2019-06-20T20:42:21.490Z,1.30
2019-06-20T20:44:51.269Z,1.40
2019-06-20T20:47:22.669Z,1.50
2019-06-20T20:49:58.643Z,1.17
2019-06-20T20:52:28.716Z,1.30
2019-06-20T20:54:58.304Z,1.53
2019-06-20T20:57:30.440Z,1.23
2019-06-20T21:00:24.851Z,1.40
2019-06-20T21:02:55.147Z,1.27
2019-06-20T21:05:26.182Z,1.60
2019-06-20T21:07:57.348Z,1.50
2019-06-20T21:10:32.599Z,1.40
2019-06-20T21:13:08.918Z,1.57
2019-06-20T21:15:39.217Z,1.40
2019-06-20T21:18:10.189Z,1.40
2019-06-20T21:20:43.069Z,1.23
2019-06-20T21:23:13.459Z,1.50
2019-06-20T21:25:48.599Z,1.50
2019-06-20T21:28:18.956Z,1.43
2019-06-20T21:30:52.056Z,1.50
2019-06-20T21:33:22.535Z,1.47
2019-06-20T21:36:07.323Z,1.40
2019-06-20T21:38:27.446Z,1.50
2019-06-20T21:40:58.231Z,1.40
2019-06-20T21:43:27.901Z,1.47
2019-06-20T21:46:02.503Z,1.50
2019-06-20T21:48:32.919Z,1.53
2019-06-20T21:51:06.258Z,1.50
2019-06-20T21:53:38.171Z,1.50
2019-06-20T21:56:07.873Z,1.77
2019-06-20T21:58:37.945Z,1.90
2019-06-20T22:01:13.287Z,1.63
2019-06-20T22:03:45.170Z,1.90
2019-06-20T22:06:23.903Z,1.70
2019-06-20T22:08:47.039Z,1.70
2019-06-20T22:11:17.563Z,1.53
2019-06-20T22:13:47.621Z,1.73
2019-06-20T22:16:17.420Z,1.57
2019-06-20T22:18:47.037Z,1.80
2019-06-20T22:21:18.116Z,1.70
2019-06-20T22:23:48.301Z,1.80
2019-06-20T22:26:19.626Z,1.93
2019-06-20T22:28:52.443Z,1.70
2019-06-20T22:31:22.976Z,1.90
2019-06-20T22:33:53.159Z,1.90
2019-06-20T22:36:39.100Z,1.83
2019-06-20T22:38:56.349Z,1.70
2019-06-20T22:41:32.243Z,1.80
2019-06-20T22:44:02.339Z,2.07
2019-06-20T22:46:35.951Z,2.10
2019-06-20T22:49:11.809Z,2.17
2019-06-20T22:51:44.630Z,2.53
2019-06-20T22:54:17.313Z,2.20
2019-06-20T22:56:47.439Z,2.00
2019-06-20T22:59:18.302Z,2.27
2019-06-20T23:01:47.851Z,2.20
2019-06-20T23:04:19.853Z,2.57
2019-06-20T23:06:56.483Z,2.40
2019-06-20T23:09:26.998Z,2.40
2019-06-20T23:11:55.720Z,2.60
2019-06-20T23:14:29.324Z,2.20
2019-06-20T23:16:59.360Z,2.30
2019-06-20T23:19:29.426Z,2.20
2019-06-20T23:21:59.762Z,2.20
2019-06-20T23:24:30.444Z,2.50
2019-06-20T23:27:00.296Z,2.27
2019-06-20T23:29:29.875Z,2.20
2019-06-20T23:31:59.707Z,2.07
2019-06-20T23:34:37.221Z,2.27
2019-06-20T23:37:13.223Z,2.07
2019-06-20T23:39:43.340Z,1.90
2019-06-20T23:42:14.359Z,1.93
2019-06-20T23:44:47.214Z,2.33
2019-06-20T23:47:16.957Z,2.27
2019-06-20T23:49:46.674Z,2.43
2019-06-20T23:52:19.906Z,2.00
2019-06-20T23:54:49.909Z,2.00
2019-06-20T23:57:20.685Z,2.13
2019-06-20T23:59:50.894Z,2.30
